Latest Weather Observations for Bundaberg

IDQ60801

Issued at 2:05 pm EST Thursday 17 April 2014 (issued every 30 minutes, with the page automatically refreshed every 10 minutes)

About weather observations | Map of weather stations | Latest weather observations for QLD | Other Formats
Station Details ID: 039128 Name: BUNDABERG AERO Lat: -24.91 Lon: 152.32 Height: 30.82 m
Data from the previous 72 hours. | See also: Recent months at Bundaberg
Date/Time
EST
Temp
°C
App
Temp
°C
Dew
Point
Rel
Hum
%
Delta-T
°C
Wind Press
QNH
hPa
Press
MSL
hPa
Rain
since 9 am
mm
Dir
 
Spd
km/h
Gust
km/h
Spd
kts
Gust
kts
17/02:00pm 24.5 23.9 17.5 65 4.4 NNE 17 20 9 11 1014.9 - 0.0
17/01:30pm 26.5 27.1 18.6 62 5.0 NNE 13 19 7 10 1015.1 - 0.0
17/01:00pm 25.6 24.9 17.3 60 5.2 ENE 17 22 9 12 1015.4 - 0.0
17/12:30pm 27.4 27.8 14.8 46 7.6 N 6 11 3 6 1015.8 - 0.0
17/12:00pm 27.1 27.2 15.5 49 7.1 SW 9 15 5 8 1016.4 1016.2 0.0
17/11:30am 26.6 27.1 16.5 54 6.2 NW 9 15 5 8 1017.0 - 0.0
17/11:00am 26.4 27.3 16.6 55 6.1 NW 7 17 4 9 1017.5 - 0.0
17/10:30am 25.4 26.5 16.5 58 5.5 SW 6 9 3 5 1017.8 - 0.0
17/10:00am 25.8 27.5 18.0 62 4.9 W 6 15 3 8 1018.0 - 0.0
17/09:30am 24.3 25.7 17.8 67 4.1 S 7 11 4 6 1018.2 - 0.0
17/09:00am 23.6 24.7 18.0 71 3.5 SE 9 15 5 8 1018.2 1018.1 0.0
17/08:30am 22.4 23.9 18.0 76 2.7 SSE 7 13 4 7 1018.1 - 0.0
17/08:00am 21.1 22.3 17.3 79 2.3 S 7 11 4 6 1018.0 - 0.0
17/07:30am 19.6 20.6 16.4 82 1.9 WSW 6 9 3 5 1017.9 - 0.0
17/07:00am 18.4 19.3 16.7 90 1.0 SW 7 9 4 5 1017.5 - 0.0
17/06:30am 17.4 18.1 15.7 90 1.0 S 6 7 3 4 1017.1 - 0.0
17/06:00am 17.7 18.0 16.0 90 1.0 S 9 13 5 7 1016.7 1016.5 0.0
17/05:30am 17.7 18.0 15.9 89 1.1 S 9 13 5 7 1016.5 - 0.0
17/05:00am 18.5 18.4 16.1 86 1.4 SSE 11 15 6 8 1016.4 - 0.0
17/04:30am 18.9 19.4 16.5 86 1.4 SSE 9 13 5 7 1016.1 - 0.0
17/04:00am 18.2 18.6 16.4 89 1.1 S 9 13 5 7 1016.0 - 0.0
17/03:30am 18.2 18.4 16.7 91 0.9 S 11 15 6 8 1015.8 - 0.0
17/03:00am 18.0 18.8 16.3 90 1.0 S 7 11 4 6 1015.8 1015.6 0.0
17/02:30am 17.9 18.3 16.4 91 0.9 S 9 13 5 7 1015.8 - 0.0
17/02:00am 17.9 18.3 16.4 91 0.9 S 9 13 5 7 1015.9 - 0.0
17/01:30am 18.2 18.7 16.5 90 1.0 S 9 11 5 6 1016.1 - 0.0
17/01:00am 18.4 19.3 16.7 90 1.0 S 7 9 4 5 1016.4 - 0.0
17/12:30am 18.6 19.8 16.8 89 1.1 S 6 7 3 4 1016.5 - 0.0
17/12:00am 18.5 19.4 16.7 89 1.1 S 7 9 4 5 1016.6 1016.4 0.0
 
Date/Time
EST
Temp
°C
App
Temp
°C
Dew
Point
Rel
Hum
%
Delta-T
°C
Wind Press
QNH
hPa
Press
MSL
hPa
Rain
since 9 am
mm
Dir
 
Spd
km/h
Gust
km/h
Spd
kts
Gust
kts
16/11:30pm 18.4 20.6 16.6 89 1.1 CALM 0 6 0 3 1016.5 - 0.0
16/11:00pm 18.8 19.8 16.8 88 1.2 SE 7 9 4 5 1016.4 - 0.0
16/10:30pm 18.3 20.5 16.5 89 1.1 SE 0 0 0 0 1016.3 - 0.0
16/10:00pm 19.0 20.1 16.6 86 1.4 S 6 7 3 4 1016.7 - 0.0
16/09:30pm 19.3 20.2 16.7 85 1.6 SSE 7 9 4 5 1016.7 - 0.0
16/09:00pm 19.3 21.8 17.3 88 1.2 CALM 0 0 0 0 1016.4 1016.2 0.0
16/08:30pm 19.6 22.2 17.6 88 1.2 CALM 0 4 0 2 1016.1 - 0.0
16/08:00pm 19.3 21.2 16.7 85 1.6 S 2 9 1 5 1015.9 - 0.0
16/07:30pm 19.9 22.1 16.5 81 2.0 CALM 0 0 0 0 1015.6 - 0.0
16/07:00pm 20.7 22.7 16.1 75 2.8 CALM 0 6 0 3 1015.0 - 0.0
16/06:30pm 21.9 22.6 16.2 70 3.4 SSW 7 9 4 5 1014.9 - 0.0
16/06:00pm 22.4 22.4 15.3 64 4.2 N 9 11 5 6 1014.3 1014.1 0.0
16/05:30pm 23.0 22.6 15.1 61 4.7 NNE 11 15 6 8 1014.0 - 0.0
16/05:00pm 23.8 21.5 14.2 55 5.7 NNE 19 22 10 12 1013.4 - 0.0
16/04:30pm 25.0 23.3 14.8 53 6.1 NNE 17 22 9 12 1013.2 - 0.0
16/04:00pm 26.1 25.1 15.5 52 6.4 NNE 15 20 8 11 1013.1 - 0.0
16/03:30pm 26.2 24.8 15.6 52 6.5 NE 17 20 9 11 1013.0 - 0.0
16/03:00pm 26.6 24.9 14.7 48 7.2 ENE 17 24 9 13 1013.0 1012.8 0.0
16/02:30pm 26.5 28.0 14.6 48 7.1 CALM 0 6 0 3 1013.4 - 0.0
16/02:00pm 26.7 27.0 15.1 49 7.0 WSW 7 11 4 6 1013.6 - 0.0
16/01:30pm 26.8 26.5 14.5 46 7.4 S 9 15 5 8 1013.7 - 0.0
16/01:00pm 27.0 27.4 14.7 47 7.4 ESE 6 11 3 6 1014.2 - 0.0
16/12:30pm 26.7 25.8 13.8 45 7.6 S 11 17 6 9 1014.6 - 0.0
16/12:00pm 26.3 25.9 14.1 47 7.3 SSW 9 17 5 9 1015.0 1014.8 0.0
16/11:30am 25.6 24.8 12.8 45 7.4 SSE 9 17 5 9 1015.5 - 0.0
16/11:00am 25.4 24.2 12.9 45 7.3 S 11 15 6 8 1016.0 - 0.0
16/10:30am 24.8 24.2 13.4 49 6.7 S 9 15 5 8 1016.6 - 0.0
16/10:00am 24.6 23.5 14.4 53 6.1 SSE 13 19 7 10 1016.9 - 0.0
16/09:30am 23.4 22.3 14.4 57 5.3 S 13 19 7 10 1017.0 - 0.0
16/09:00am 22.7 22.2 15.8 65 4.2 S 13 20 7 11 1016.9 1016.7 0.0
16/08:30am 21.5 20.7 15.1 67 3.8 S 13 17 7 9 1016.8 - 0.0
16/08:00am 20.3 20.2 15.9 76 2.6 S 11 15 6 8 1016.8 - 0.0
16/07:30am 19.2 18.8 15.1 77 2.4 SSW 11 13 6 7 1016.7 - 0.0
16/07:00am 17.9 17.8 15.0 83 1.7 SSW 9 13 5 7 1016.3 - 0.0
16/06:30am 16.9 16.8 14.9 88 1.2 SW 9 11 5 6 1016.1 - 0.0
16/06:00am 16.6 16.4 14.8 89 1.0 SSW 9 11 5 6 1015.8 1015.6 0.0
16/05:30am 17.0 16.9 15.0 88 1.2 SSW 9 13 5 7 1015.2 - 0.0
16/05:00am 17.2 16.7 15.0 87 1.3 SSW 11 15 6 8 1015.0 - 0.0
16/04:30am 17.2 16.8 15.2 88 1.2 SSW 11 15 6 8 1014.9 - 0.0
16/04:00am 17.2 16.8 15.2 88 1.2 SSW 11 15 6 8 1014.8 - 0.0
16/03:30am 17.3 17.3 15.3 88 1.2 SSW 9 13 5 7 1014.7 - 0.0
16/03:00am 17.4 17.6 15.7 90 1.0 SSW 9 11 5 6 1014.9 1014.7 0.0
16/02:30am 17.2 17.3 15.5 90 1.0 SW 9 11 5 6 1015.0 - 0.0
16/02:00am 17.6 17.8 15.8 89 1.1 SSW 9 11 5 6 1015.0 - 0.0
16/01:30am 17.5 18.1 15.7 89 1.1 S 7 11 4 6 1015.2 - 0.0
16/01:00am 17.8 18.7 16.0 89 1.1 S 6 9 3 5 1015.5 - 0.0
16/12:30am 17.6 18.2 15.9 90 1.0 SSW 7 9 4 5 1015.8 - 0.0
16/12:00am 17.6 18.2 15.8 89 1.1 WSW 7 9 4 5 1015.9 1015.7 0.0
 
Date/Time
EST
Temp
°C
App
Temp
°C
Dew
Point
Rel
Hum
%
Delta-T
°C
Wind Press
QNH
hPa
Press
MSL
hPa
Rain
since 9 am
mm
Dir
 
Spd
km/h
Gust
km/h
Spd
kts
Gust
kts
15/11:30pm 18.3 19.0 16.1 87 1.3 SSW 7 9 4 5 1015.8 - 0.0
15/11:00pm 18.9 18.8 16.1 84 1.7 S 11 15 6 8 1015.6 - 0.0
15/10:30pm 19.4 19.8 16.4 83 1.8 SSE 9 13 5 7 1015.6 - 0.0
15/10:00pm 19.2 20.1 16.6 85 1.6 S 7 11 4 6 1015.7 - 0.0
15/09:30pm 19.4 20.4 16.8 85 1.6 SSE 7 11 4 6 1015.7 - 0.0
15/09:00pm 19.3 19.9 16.9 86 1.5 SE 9 11 5 6 1015.4 1015.2 0.0
15/08:30pm 19.4 19.7 17.0 86 1.5 SE 11 13 6 7 1015.4 - 0.0
15/08:00pm 19.6 19.8 16.8 84 1.7 SE 11 13 6 7 1015.2 - 0.0
15/07:30pm 20.3 20.5 16.7 80 2.2 SE 11 13 6 7 1015.0 - 0.0
15/07:00pm 21.4 20.8 16.6 74 2.9 ESE 15 17 8 9 1014.7 - 0.0
15/06:30pm 21.9 20.9 16.6 72 3.2 ESE 17 20 9 11 1014.4 - 0.0
15/06:00pm 22.6 21.8 17.1 71 3.4 ESE 17 20 9 11 1013.9 1013.7 0.0
15/05:30pm 23.5 22.9 17.5 69 3.7 ESE 17 20 9 11 1013.6 - 0.0
15/05:00pm 24.1 23.3 17.1 65 4.3 ESE 17 24 9 13 1013.3 - 0.0
15/04:30pm 23.9 23.3 17.6 68 3.9 E 17 22 9 12 1013.0 - 0.0
15/04:00pm 25.6 24.4 17.0 59 5.3 ESE 19 28 10 15 1012.7 - 0.0
15/03:30pm 26.4 24.3 17.2 57 5.7 ESE 24 30 13 16 1012.5 - 0.0
15/03:00pm 25.7 24.9 17.1 59 5.4 E 17 22 9 12 1012.5 1012.3 0.0
15/02:30pm 26.8 26.4 16.1 52 6.6 SE 13 17 7 9 1012.6 - 0.0
15/02:00pm 26.5 25.2 15.8 51 6.5 SSE 17 26 9 14 1012.5 - 0.0
15/01:30pm 26.4 24.8 16.6 55 6.1 SE 20 28 11 15 1012.6 - 0.0
15/01:00pm 26.4 24.7 16.3 53 6.2 SE 20 28 11 15 1012.8 - 0.0
15/12:30pm 26.6 25.9 16.5 54 6.2 SSE 15 24 8 13 1013.2 - 0.0
15/12:00pm 26.2 24.7 16.4 54 6.0 SE 19 28 10 15 1013.6 1013.4 0.0
15/11:30am 26.6 25.0 17.4 57 5.8 SE 22 28 12 15 1014.1 - 0.0
15/11:00am 25.4 23.2 16.8 59 5.3 SSE 24 32 13 17 1014.5 - 0.0
15/10:30am 24.7 23.0 16.2 59 5.2 SSE 20 30 11 16 1014.9 - 0.0
15/10:00am 24.7 23.4 16.9 62 4.8 SSE 19 32 10 17 1015.0 - 0.0
15/09:30am 23.7 21.6 16.2 63 4.6 SSE 22 32 12 17 1015.3 - 0.0
15/09:00am 23.9 22.8 17.2 66 4.1 SSE 19 32 10 17 1015.2 1015.0 4.4
15/08:30am 22.8 21.5 16.8 69 3.7 S 19 26 10 14 1015.1 - 4.4
15/08:00am 21.9 20.8 16.4 71 3.3 S 17 26 9 14 1014.8 - 4.4
15/07:30am 20.8 19.2 16.0 74 2.9 S 19 28 10 15 1014.6 - 4.4
15/07:00am 19.8 19.0 16.1 79 2.2 SSW 15 20 8 11 1014.4 - 4.4
15/06:30am 18.9 18.4 15.9 83 1.8 SSW 13 20 7 11 1014.3 - 4.4
15/06:00am 18.5 18.0 15.9 85 1.5 SSW 13 19 7 10 1013.9 1013.7 4.4
15/05:30am 18.4 17.9 15.8 85 1.5 SW 13 19 7 10 1013.9 - 4.4
15/05:00am 18.5 18.4 15.9 85 1.5 SW 11 17 6 9 1013.7 - 4.4
15/04:30am 18.8 18.3 15.9 83 1.7 SW 13 17 7 9 1013.2 - 4.4
15/04:00am 18.8 18.3 16.0 84 1.7 SW 13 19 7 10 1012.9 - 4.4
15/03:30am 18.9 18.4 15.9 83 1.8 SW 13 17 7 9 1012.6 - 4.4
15/03:00am 19.2 18.8 16.2 83 1.8 SSW 13 17 7 9 1012.5 1012.3 4.4
15/02:30am 19.2 18.8 16.2 83 1.8 SSW 13 19 7 10 1012.5 - 4.4
15/02:00am 19.5 19.2 16.5 83 1.8 SSW 13 20 7 11 1012.4 - 4.4
15/01:30am 19.6 19.3 16.4 82 1.9 SW 13 17 7 9 1012.6 - 4.4
15/01:00am 19.7 19.4 16.5 82 1.9 SSW 13 19 7 10 1012.6 - 4.4
15/12:30am 19.7 19.8 16.5 82 1.9 SW 11 17 6 9 1012.6 - 4.4
15/12:00am 20.0 20.1 16.6 81 2.1 SW 11 17 6 9 1012.7 1012.5 4.4
 
Date/Time
EST
Temp
°C
App
Temp
°C
Dew
Point
Rel
Hum
%
Delta-T
°C
Wind Press
QNH
hPa
Press
MSL
hPa
Rain
since 9 am
mm
Dir
 
Spd
km/h
Gust
km/h
Spd
kts
Gust
kts
14/11:30pm 20.5 20.7 16.7 79 2.3 SSW 11 17 6 9 1012.5 - 4.4
14/11:00pm 20.4 20.5 16.6 79 2.3 SSW 11 15 6 8 1012.5 - 4.4
14/10:30pm 20.9 20.7 16.7 77 2.6 S 13 19 7 10 1012.8 - 4.4
14/10:00pm 20.9 20.7 16.7 77 2.6 S 13 19 7 10 1012.7 - 4.4
14/09:30pm 21.1 20.7 17.1 78 2.4 S 15 22 8 12 1012.6 - 4.4
14/09:00pm 21.4 21.0 17.2 77 2.6 S 15 24 8 13 1012.4 1012.2 4.4
14/08:30pm 22.0 20.9 17.4 75 2.8 S 19 28 10 15 1012.4 - 4.4
14/08:00pm 22.1 21.2 17.7 76 2.7 S 19 28 10 15 1012.3 - 4.4
14/07:30pm 22.0 21.7 18.2 79 2.4 SSW 17 28 9 15 1011.7 - 4.4
14/07:00pm 21.5 21.9 18.1 81 2.1 SSW 13 19 7 10 1010.9 - 4.4
14/06:30pm 21.6 21.6 18.0 80 2.2 S 15 20 8 11 1010.5 - 4.4
14/06:00pm 21.6 20.4 18.4 82 2.0 S 22 35 12 19 1010.1 1009.9 4.4
14/05:30pm 21.2 21.4 19.3 89 1.2 S 17 24 9 13 1009.6 - 4.4
14/05:00pm 21.5 21.3 19.4 88 1.3 S 19 28 10 15 1009.2 - 4.4
14/04:42pm 22.0 22.7 19.7 87 1.5 S 15 24 8 13 1008.6 - 4.4
14/04:31pm 21.8 23.0 19.9 89 1.2 SSE 13 19 7 10 1008.4 - 4.2
14/04:30pm 21.8 23.0 19.9 89 1.2 SSE 13 22 7 12 1008.4 - 4.2
14/04:00pm 22.1 23.0 20.0 88 1.3 S 15 22 8 12 1007.9 - 4.2
14/03:38pm 21.4 21.5 20.0 92 0.9 S 19 28 10 15 1007.8 - 4.2
14/03:32pm 21.4 21.6 20.2 93 0.8 S 19 33 10 18 1007.7 - 4.2
14/03:30pm 21.3 21.3 20.1 93 0.8 S 20 33 11 18 1007.7 - 4.2
14/03:13pm 21.1 20.7 19.4 90 1.1 S 20 50 11 27 1007.7 - 3.8
14/03:10pm 21.6 21.6 19.7 89 1.2 S 19 30 10 16 1007.7 - 2.8
14/03:00pm 22.4 21.8 19.8 85 1.7 S 22 37 12 20 1007.5 1007.3 2.4
14/02:30pm 21.9 21.2 19.6 87 1.5 S 22 39 12 21 1007.4 - 2.4
14/02:27pm 21.9 21.1 20.0 89 1.2 S 24 41 13 22 1007.4 - 2.4

Other Formats:

Comma delimited format used in spreadsheet applications
http://www.bom.gov.au/fwo/IDQ60801/IDQ60801.94387.axf

JavaScript Object Notation format (JSON) in row-major order
http://www.bom.gov.au/fwo/IDQ60801/IDQ60801.94387.json